sensor_id;sensor_type;location;lat;lon;timestamp;P1;durP1;ratioP1;P2;durP2;ratioP2
36355;SDS011;22384;54.302;18.596;2023-11-19T00:00:55;34.95;;;17.75;;
36355;SDS011;22384;54.302;18.596;2023-11-19T00:03:21;32.50;;;18.33;;
36355;SDS011;22384;54.302;18.596;2023-11-19T00:05:47;30.65;;;16.63;;
36355;SDS011;22384;54.302;18.596;2023-11-19T00:08:13;33.53;;;17.02;;
36355;SDS011;22384;54.302;18.596;2023-11-19T00:10:39;29.13;;;15.90;;
36355;SDS011;22384;54.302;18.596;2023-11-19T00:13:05;32.47;;;17.67;;
36355;SDS011;22384;54.302;18.596;2023-11-19T00:15:32;31.10;;;16.50;;
36355;SDS011;22384;54.302;18.596;2023-11-19T00:17:58;40.00;;;17.58;;
36355;SDS011;22384;54.302;18.596;2023-11-19T00:30:22;32.83;;;17.60;;
36355;SDS011;22384;54.302;18.596;2023-11-19T00:42:04;33.38;;;16.80;;
36355;SDS011;22384;54.302;18.596;2023-11-19T00:48:03;32.65;;;16.75;;
36355;SDS011;22384;54.302;18.596;2023-11-19T00:50:41;29.70;;;16.25;;
36355;SDS011;22384;54.302;18.596;2023-11-19T00:56:12;34.17;;;16.17;;
36355;SDS011;22384;54.302;18.596;2023-11-19T00:58:38;31.40;;;15.15;;
36355;SDS011;22384;54.302;18.596;2023-11-19T01:01:04;34.85;;;17.77;;
36355;SDS011;22384;54.302;18.596;2023-11-19T01:03:30;39.08;;;18.25;;
36355;SDS011;22384;54.302;18.596;2023-11-19T01:05:58;32.53;;;16.88;;
36355;SDS011;22384;54.302;18.596;2023-11-19T01:08:26;34.80;;;16.50;;
36355;SDS011;22384;54.302;18.596;2023-11-19T01:10:52;29.20;;;16.65;;
36355;SDS011;22384;54.302;18.596;2023-11-19T01:13:18;31.20;;;16.50;;
36355;SDS011;22384;54.302;18.596;2023-11-19T01:15:44;29.00;;;15.95;;
36355;SDS011;22384;54.302;18.596;2023-11-19T01:18:10;29.38;;;15.57;;
36355;SDS011;22384;54.302;18.596;2023-11-19T01:20:36;32.92;;;16.85;;
36355;SDS011;22384;54.302;18.596;2023-11-19T01:23:02;34.00;;;16.30;;
36355;SDS011;22384;54.302;18.596;2023-11-19T01:25:29;30.13;;;16.17;;
36355;SDS011;22384;54.302;18.596;2023-11-19T01:27:55;31.13;;;16.50;;
36355;SDS011;22384;54.302;18.596;2023-11-19T01:30:23;31.17;;;17.00;;
36355;SDS011;22384;54.302;18.596;2023-11-19T01:32:50;36.28;;;16.83;;
36355;SDS011;22384;54.302;18.596;2023-11-19T01:35:16;28.92;;;15.98;;
36355;SDS011;22384;54.302;18.596;2023-11-19T01:37:42;36.42;;;16.90;;
36355;SDS011;22384;54.302;18.596;2023-11-19T01:40:08;30.85;;;16.70;;
36355;SDS011;22384;54.302;18.596;2023-11-19T01:42:39;30.77;;;15.73;;
36355;SDS011;22384;54.302;18.596;2023-11-19T01:45:06;30.42;;;15.38;;
36355;SDS011;22384;54.302;18.596;2023-11-19T01:47:34;30.20;;;14.95;;
36355;SDS011;22384;54.302;18.596;2023-11-19T01:50:01;28.60;;;15.48;;
36355;SDS011;22384;54.302;18.596;2023-11-19T01:52:32;29.33;;;15.40;;
36355;SDS011;22384;54.302;18.596;2023-11-19T01:55:01;22.88;;;12.10;;
36355;SDS011;22384;54.302;18.596;2023-11-19T01:57:28;30.35;;;15.35;;
36355;SDS011;22384;54.302;18.596;2023-11-19T01:59:54;29.55;;;14.48;;
36355;SDS011;22384;54.302;18.596;2023-11-19T02:02:20;27.60;;;15.13;;
36355;SDS011;22384;54.302;18.596;2023-11-19T02:04:49;31.02;;;15.85;;
36355;SDS011;22384;54.302;18.596;2023-11-19T02:07:16;34.17;;;16.20;;
36355;SDS011;22384;54.302;18.596;2023-11-19T02:09:43;28.33;;;15.65;;
36355;SDS011;22384;54.302;18.596;2023-11-19T02:12:09;27.13;;;14.88;;
36355;SDS011;22384;54.302;18.596;2023-11-19T02:14:38;30.52;;;15.55;;
36355;SDS011;22384;54.302;18.596;2023-11-19T02:17:05;27.23;;;15.20;;
36355;SDS011;22384;54.302;18.596;2023-11-19T02:19:31;30.30;;;15.00;;
36355;SDS011;22384;54.302;18.596;2023-11-19T02:21:57;30.55;;;16.42;;
36355;SDS011;22384;54.302;18.596;2023-11-19T02:24:23;29.48;;;15.35;;
36355;SDS011;22384;54.302;18.596;2023-11-19T02:26:55;28.63;;;16.02;;
36355;SDS011;22384;54.302;18.596;2023-11-19T02:29:23;50.88;;;27.40;;
36355;SDS011;22384;54.302;18.596;2023-11-19T02:31:49;174.98;;;76.03;;
36355;SDS011;22384;54.302;18.596;2023-11-19T02:34:15;332.20;;;141.07;;
36355;SDS011;22384;54.302;18.596;2023-11-19T02:36:41;192.63;;;86.28;;
36355;SDS011;22384;54.302;18.596;2023-11-19T02:39:08;62.60;;;31.02;;
36355;SDS011;22384;54.302;18.596;2023-11-19T02:41:37;37.78;;;19.95;;
36355;SDS011;22384;54.302;18.596;2023-11-19T02:44:05;30.35;;;16.50;;
36355;SDS011;22384;54.302;18.596;2023-11-19T02:46:31;28.80;;;16.05;;
36355;SDS011;22384;54.302;18.596;2023-11-19T02:48:57;31.35;;;16.13;;
36355;SDS011;22384;54.302;18.596;2023-11-19T02:51:23;38.80;;;18.90;;
36355;SDS011;22384;54.302;18.596;2023-11-19T02:53:49;45.72;;;21.55;;
36355;SDS011;22384;54.302;18.596;2023-11-19T02:56:15;43.05;;;20.63;;
36355;SDS011;22384;54.302;18.596;2023-11-19T02:58:51;41.20;;;20.35;;
36355;SDS011;22384;54.302;18.596;2023-11-19T03:01:26;40.78;;;19.15;;
36355;SDS011;22384;54.302;18.596;2023-11-19T03:03:58;70.40;;;20.58;;
36355;SDS011;22384;54.302;18.596;2023-11-19T03:06:26;35.22;;;17.33;;
36355;SDS011;22384;54.302;18.596;2023-11-19T03:08:52;30.08;;;15.82;;
36355;SDS011;22384;54.302;18.596;2023-11-19T03:11:18;30.70;;;16.10;;
36355;SDS011;22384;54.302;18.596;2023-11-19T03:13:45;30.92;;;15.35;;
36355;SDS011;22384;54.302;18.596;2023-11-19T03:16:11;29.48;;;15.65;;
36355;SDS011;22384;54.302;18.596;2023-11-19T03:18:38;31.95;;;16.92;;
36355;SDS011;22384;54.302;18.596;2023-11-19T03:21:05;68.20;;;22.60;;
36355;SDS011;22384;54.302;18.596;2023-11-19T03:23:33;68.82;;;23.38;;
36355;SDS011;22384;54.302;18.596;2023-11-19T03:26:00;37.67;;;18.38;;
36355;SDS011;22384;54.302;18.596;2023-11-19T03:28:28;39.28;;;17.08;;
36355;SDS011;22384;54.302;18.596;2023-11-19T03:30:55;37.42;;;18.60;;
36355;SDS011;22384;54.302;18.596;2023-11-19T03:33:22;45.90;;;18.13;;
36355;SDS011;22384;54.302;18.596;2023-11-19T03:35:48;63.85;;;20.80;;
36355;SDS011;22384;54.302;18.596;2023-11-19T03:38:14;47.30;;;19.02;;
36355;SDS011;22384;54.302;18.596;2023-11-19T03:40:40;31.88;;;16.40;;
36355;SDS011;22384;54.302;18.596;2023-11-19T03:43:06;29.88;;;16.80;;
36355;SDS011;22384;54.302;18.596;2023-11-19T03:45:32;30.30;;;17.05;;
36355;SDS011;22384;54.302;18.596;2023-11-19T03:47:58;38.67;;;18.13;;
36355;SDS011;22384;54.302;18.596;2023-11-19T03:50:24;71.88;;;22.88;;
36355;SDS011;22384;54.302;18.596;2023-11-19T03:52:50;48.25;;;20.98;;
36355;SDS011;22384;54.302;18.596;2023-11-19T03:55:17;37.47;;;17.15;;
36355;SDS011;22384;54.302;18.596;2023-11-19T03:57:43;36.50;;;16.83;;
36355;SDS011;22384;54.302;18.596;2023-11-19T04:00:09;29.45;;;16.75;;
36355;SDS011;22384;54.302;18.596;2023-11-19T04:02:39;30.67;;;14.53;;
36355;SDS011;22384;54.302;18.596;2023-11-19T04:05:05;26.95;;;14.60;;
36355;SDS011;22384;54.302;18.596;2023-11-19T04:07:31;30.52;;;15.35;;
36355;SDS011;22384;54.302;18.596;2023-11-19T04:09:58;28.90;;;14.90;;
36355;SDS011;22384;54.302;18.596;2023-11-19T04:12:24;28.73;;;15.13;;
36355;SDS011;22384;54.302;18.596;2023-11-19T04:14:50;25.75;;;14.57;;
36355;SDS011;22384;54.302;18.596;2023-11-19T04:17:16;28.52;;;15.00;;
36355;SDS011;22384;54.302;18.596;2023-11-19T04:19:42;25.15;;;13.18;;
36355;SDS011;22384;54.302;18.596;2023-11-19T04:22:08;30.25;;;14.60;;
36355;SDS011;22384;54.302;18.596;2023-11-19T04:24:34;31.52;;;14.43;;
36355;SDS011;22384;54.302;18.596;2023-11-19T04:27:01;28.35;;;12.88;;
36355;SDS011;22384;54.302;18.596;2023-11-19T04:29:27;28.85;;;13.88;;
36355;SDS011;22384;54.302;18.596;2023-11-19T04:31:53;26.40;;;13.60;;
36355;SDS011;22384;54.302;18.596;2023-11-19T04:34:19;24.00;;;13.60;;
36355;SDS011;22384;54.302;18.596;2023-11-19T04:36:45;25.63;;;13.73;;
36355;SDS011;22384;54.302;18.596;2023-11-19T04:39:11;26.60;;;14.00;;
36355;SDS011;22384;54.302;18.596;2023-11-19T04:41:50;25.38;;;13.00;;
36355;SDS011;22384;54.302;18.596;2023-11-19T04:44:19;27.05;;;14.05;;
36355;SDS011;22384;54.302;18.596;2023-11-19T04:46:45;25.55;;;13.25;;
36355;SDS011;22384;54.302;18.596;2023-11-19T04:49:12;26.10;;;13.45;;
36355;SDS011;22384;54.302;18.596;2023-11-19T04:51:42;24.13;;;12.67;;
36355;SDS011;22384;54.302;18.596;2023-11-19T04:54:08;24.25;;;13.35;;
36355;SDS011;22384;54.302;18.596;2023-11-19T04:56:35;25.05;;;12.95;;
36355;SDS011;22384;54.302;18.596;2023-11-19T04:59:04;27.40;;;12.65;;
36355;SDS011;22384;54.302;18.596;2023-11-19T05:01:31;28.45;;;15.10;;
36355;SDS011;22384;54.302;18.596;2023-11-19T05:03:57;24.50;;;12.93;;
36355;SDS011;22384;54.302;18.596;2023-11-19T05:06:30;22.80;;;12.68;;
36355;SDS011;22384;54.302;18.596;2023-11-19T05:08:57;27.92;;;13.32;;
36355;SDS011;22384;54.302;18.596;2023-11-19T05:11:26;26.52;;;12.48;;
36355;SDS011;22384;54.302;18.596;2023-11-19T05:13:53;24.30;;;12.75;;
36355;SDS011;22384;54.302;18.596;2023-11-19T05:16:19;24.35;;;13.02;;
36355;SDS011;22384;54.302;18.596;2023-11-19T05:18:46;24.30;;;13.23;;
36355;SDS011;22384;54.302;18.596;2023-11-19T05:21:12;25.17;;;12.55;;
36355;SDS011;22384;54.302;18.596;2023-11-19T05:23:38;30.23;;;14.27;;
36355;SDS011;22384;54.302;18.596;2023-11-19T05:26:07;28.67;;;15.60;;
36355;SDS011;22384;54.302;18.596;2023-11-19T05:28:33;32.65;;;13.90;;
36355;SDS011;22384;54.302;18.596;2023-11-19T05:30:59;31.23;;;16.25;;
36355;SDS011;22384;54.302;18.596;2023-11-19T05:33:25;35.03;;;16.30;;
36355;SDS011;22384;54.302;18.596;2023-11-19T05:35:51;34.60;;;15.85;;
36355;SDS011;22384;54.302;18.596;2023-11-19T05:38:17;28.77;;;15.30;;
36355;SDS011;22384;54.302;18.596;2023-11-19T05:40:43;31.10;;;15.85;;
36355;SDS011;22384;54.302;18.596;2023-11-19T05:43:09;28.52;;;14.48;;
36355;SDS011;22384;54.302;18.596;2023-11-19T05:45:35;27.33;;;14.07;;
36355;SDS011;22384;54.302;18.596;2023-11-19T05:48:01;31.23;;;16.13;;
36355;SDS011;22384;54.302;18.596;2023-11-19T05:50:29;35.00;;;16.70;;
36355;SDS011;22384;54.302;18.596;2023-11-19T05:52:55;31.65;;;16.27;;
36355;SDS011;22384;54.302;18.596;2023-11-19T05:55:21;29.67;;;15.88;;
36355;SDS011;22384;54.302;18.596;2023-11-19T05:57:48;30.95;;;15.25;;
36355;SDS011;22384;54.302;18.596;2023-11-19T06:00:16;29.52;;;14.15;;
36355;SDS011;22384;54.302;18.596;2023-11-19T06:02:43;30.63;;;15.18;;
36355;SDS011;22384;54.302;18.596;2023-11-19T06:05:09;37.50;;;15.02;;
36355;SDS011;22384;54.302;18.596;2023-11-19T06:07:35;25.85;;;14.82;;
36355;SDS011;22384;54.302;18.596;2023-11-19T06:10:04;28.27;;;14.25;;
36355;SDS011;22384;54.302;18.596;2023-11-19T06:12:31;29.52;;;14.43;;
36355;SDS011;22384;54.302;18.596;2023-11-19T06:14:59;29.63;;;15.23;;
36355;SDS011;22384;54.302;18.596;2023-11-19T06:17:25;29.50;;;15.35;;
36355;SDS011;22384;54.302;18.596;2023-11-19T06:19:52;29.23;;;14.80;;
36355;SDS011;22384;54.302;18.596;2023-11-19T06:22:18;29.55;;;14.55;;
36355;SDS011;22384;54.302;18.596;2023-11-19T06:24:44;31.60;;;15.45;;
36355;SDS011;22384;54.302;18.596;2023-11-19T06:27:10;28.77;;;15.18;;
36355;SDS011;22384;54.302;18.596;2023-11-19T06:29:36;28.10;;;14.70;;
36355;SDS011;22384;54.302;18.596;2023-11-19T06:32:02;25.58;;;14.73;;
36355;SDS011;22384;54.302;18.596;2023-11-19T06:34:28;31.33;;;16.02;;
36355;SDS011;22384;54.302;18.596;2023-11-19T06:36:54;28.33;;;15.45;;
36355;SDS011;22384;54.302;18.596;2023-11-19T06:39:20;30.30;;;16.48;;
36355;SDS011;22384;54.302;18.596;2023-11-19T06:41:46;29.40;;;14.73;;
36355;SDS011;22384;54.302;18.596;2023-11-19T06:44:13;35.72;;;15.95;;
36355;SDS011;22384;54.302;18.596;2023-11-19T06:46:40;29.55;;;15.73;;
36355;SDS011;22384;54.302;18.596;2023-11-19T06:49:06;32.75;;;15.73;;
36355;SDS011;22384;54.302;18.596;2023-11-19T06:51:33;29.00;;;15.57;;
36355;SDS011;22384;54.302;18.596;2023-11-19T06:53:59;30.42;;;16.42;;
36355;SDS011;22384;54.302;18.596;2023-11-19T06:56:26;27.30;;;15.07;;
36355;SDS011;22384;54.302;18.596;2023-11-19T06:58:52;30.58;;;15.32;;
36355;SDS011;22384;54.302;18.596;2023-11-19T07:01:18;30.38;;;16.10;;
36355;SDS011;22384;54.302;18.596;2023-11-19T07:03:45;30.25;;;14.88;;
36355;SDS011;22384;54.302;18.596;2023-11-19T07:06:11;42.30;;;18.52;;
36355;SDS011;22384;54.302;18.596;2023-11-19T07:08:41;32.78;;;17.50;;
36355;SDS011;22384;54.302;18.596;2023-11-19T07:11:10;30.23;;;16.30;;
36355;SDS011;22384;54.302;18.596;2023-11-19T07:13:37;33.22;;;18.08;;
36355;SDS011;22384;54.302;18.596;2023-11-19T07:16:13;39.33;;;19.27;;
36355;SDS011;22384;54.302;18.596;2023-11-19T07:18:39;60.80;;;31.00;;
36355;SDS011;22384;54.302;18.596;2023-11-19T07:24:25;47.25;;;25.98;;
36355;SDS011;22384;54.302;18.596;2023-11-19T07:41:43;46.08;;;20.35;;
36355;SDS011;22384;54.302;18.596;2023-11-19T07:47:10;37.15;;;19.48;;
36355;SDS011;22384;54.302;18.596;2023-11-19T07:49:37;37.78;;;19.70;;
36355;SDS011;22384;54.302;18.596;2023-11-19T07:52:04;38.63;;;19.83;;
36355;SDS011;22384;54.302;18.596;2023-11-19T07:54:30;36.80;;;18.75;;
36355;SDS011;22384;54.302;18.596;2023-11-19T07:56:56;50.67;;;23.83;;
36355;SDS011;22384;54.302;18.596;2023-11-19T07:59:22;57.92;;;25.65;;
36355;SDS011;22384;54.302;18.596;2023-11-19T08:01:48;56.70;;;26.25;;
36355;SDS011;22384;54.302;18.596;2023-11-19T08:04:14;65.00;;;29.40;;
36355;SDS011;22384;54.302;18.596;2023-11-19T08:06:40;48.00;;;22.00;;
36355;SDS011;22384;54.302;18.596;2023-11-19T08:09:06;67.20;;;27.85;;
36355;SDS011;22384;54.302;18.596;2023-11-19T08:11:38;43.85;;;20.27;;
36355;SDS011;22384;54.302;18.596;2023-11-19T08:14:04;35.53;;;18.58;;
36355;SDS011;22384;54.302;18.596;2023-11-19T08:16:30;26.17;;;15.38;;
36355;SDS011;22384;54.302;18.596;2023-11-19T08:18:56;24.20;;;13.60;;
36355;SDS011;22384;54.302;18.596;2023-11-19T08:21:23;27.83;;;13.32;;
36355;SDS011;22384;54.302;18.596;2023-11-19T08:23:49;22.80;;;12.75;;
36355;SDS011;22384;54.302;18.596;2023-11-19T08:26:15;21.20;;;12.02;;
36355;SDS011;22384;54.302;18.596;2023-11-19T08:28:42;24.13;;;12.82;;
36355;SDS011;22384;54.302;18.596;2023-11-19T08:31:08;24.85;;;12.98;;
36355;SDS011;22384;54.302;18.596;2023-11-19T08:33:34;19.42;;;12.65;;
36355;SDS011;22384;54.302;18.596;2023-11-19T08:36:00;24.83;;;12.90;;
36355;SDS011;22384;54.302;18.596;2023-11-19T08:38:28;22.33;;;13.27;;
36355;SDS011;22384;54.302;18.596;2023-11-19T08:40:55;24.98;;;13.95;;
36355;SDS011;22384;54.302;18.596;2023-11-19T08:43:25;32.33;;;15.35;;
36355;SDS011;22384;54.302;18.596;2023-11-19T08:45:51;38.20;;;16.92;;
36355;SDS011;22384;54.302;18.596;2023-11-19T08:48:17;33.00;;;15.20;;
36355;SDS011;22384;54.302;18.596;2023-11-19T08:50:43;37.30;;;14.77;;
36355;SDS011;22384;54.302;18.596;2023-11-19T08:53:09;31.13;;;13.45;;
36355;SDS011;22384;54.302;18.596;2023-11-19T08:55:36;32.05;;;14.88;;
36355;SDS011;22384;54.302;18.596;2023-11-19T08:58:02;32.65;;;14.38;;
36355;SDS011;22384;54.302;18.596;2023-11-19T09:00:28;32.25;;;14.70;;
36355;SDS011;22384;54.302;18.596;2023-11-19T09:03:06;31.55;;;14.13;;
36355;SDS011;22384;54.302;18.596;2023-11-19T09:05:37;27.67;;;14.40;;
36355;SDS011;22384;54.302;18.596;2023-11-19T09:27:12;34.67;;;14.43;;
36355;SDS011;22384;54.302;18.596;2023-11-19T09:29:50;34.70;;;16.40;;
36355;SDS011;22384;54.302;18.596;2023-11-19T10:00:28;42.03;;;18.35;;
36355;SDS011;22384;54.302;18.596;2023-11-19T10:37:58;49.63;;;23.92;;
36355;SDS011;22384;54.302;18.596;2023-11-19T10:40:37;50.25;;;22.70;;
36355;SDS011;22384;54.302;18.596;2023-11-19T11:09:31;71.03;;;29.52;;
36355;SDS011;22384;54.302;18.596;2023-11-19T11:18:19;47.00;;;23.55;;
36355;SDS011;22384;54.302;18.596;2023-11-19T11:20:46;45.58;;;21.75;;
36355;SDS011;22384;54.302;18.596;2023-11-19T11:36:27;43.38;;;21.13;;
36355;SDS011;22384;54.302;18.596;2023-11-19T11:38:54;45.92;;;21.95;;
36355;SDS011;22384;54.302;18.596;2023-11-19T11:41:25;53.22;;;22.33;;
36355;SDS011;22384;54.302;18.596;2023-11-19T11:43:52;50.38;;;22.30;;
36355;SDS011;22384;54.302;18.596;2023-11-19T11:52:06;59.10;;;24.77;;
36355;SDS011;22384;54.302;18.596;2023-11-19T12:08:52;53.72;;;24.00;;
36355;SDS011;22384;54.302;18.596;2023-11-19T12:11:28;55.70;;;23.45;;
36355;SDS011;22384;54.302;18.596;2023-11-19T12:13:57;72.03;;;30.20;;
36355;SDS011;22384;54.302;18.596;2023-11-19T12:16:27;60.03;;;27.48;;
36355;SDS011;22384;54.302;18.596;2023-11-19T12:18:54;52.08;;;24.63;;
36355;SDS011;22384;54.302;18.596;2023-11-19T12:21:36;68.20;;;29.10;;
36355;SDS011;22384;54.302;18.596;2023-11-19T12:24:02;71.32;;;29.77;;
36355;SDS011;22384;54.302;18.596;2023-11-19T12:26:39;57.22;;;25.63;;
36355;SDS011;22384;54.302;18.596;2023-11-19T12:29:05;55.15;;;24.23;;
36355;SDS011;22384;54.302;18.596;2023-11-19T12:31:32;60.20;;;24.80;;
36355;SDS011;22384;54.302;18.596;2023-11-19T12:34:00;53.17;;;23.40;;
36355;SDS011;22384;54.302;18.596;2023-11-19T12:36:26;53.67;;;24.27;;
36355;SDS011;22384;54.302;18.596;2023-11-19T12:38:52;54.17;;;23.08;;
36355;SDS011;22384;54.302;18.596;2023-11-19T12:41:25;53.58;;;24.27;;
36355;SDS011;22384;54.302;18.596;2023-11-19T12:43:51;50.90;;;23.45;;
36355;SDS011;22384;54.302;18.596;2023-11-19T12:46:21;54.80;;;24.80;;
36355;SDS011;22384;54.302;18.596;2023-11-19T12:48:47;56.45;;;24.17;;
36355;SDS011;22384;54.302;18.596;2023-11-19T12:51:13;54.85;;;25.20;;
36355;SDS011;22384;54.302;18.596;2023-11-19T12:53:52;47.60;;;23.75;;
36355;SDS011;22384;54.302;18.596;2023-11-19T13:02:56;60.22;;;24.63;;
36355;SDS011;22384;54.302;18.596;2023-11-19T13:05:29;63.10;;;25.60;;
36355;SDS011;22384;54.302;18.596;2023-11-19T13:08:03;61.95;;;27.00;;
36355;SDS011;22384;54.302;18.596;2023-11-19T13:10:30;58.75;;;24.00;;
36355;SDS011;22384;54.302;18.596;2023-11-19T13:13:06;53.45;;;26.15;;
36355;SDS011;22384;54.302;18.596;2023-11-19T13:15:36;62.47;;;27.00;;
36355;SDS011;22384;54.302;18.596;2023-11-19T13:18:02;61.47;;;27.02;;
36355;SDS011;22384;54.302;18.596;2023-11-19T13:20:28;62.05;;;25.98;;
36355;SDS011;22384;54.302;18.596;2023-11-19T13:22:58;63.35;;;27.35;;
36355;SDS011;22384;54.302;18.596;2023-11-19T13:25:24;63.83;;;26.15;;
36355;SDS011;22384;54.302;18.596;2023-11-19T13:27:50;56.53;;;24.55;;
36355;SDS011;22384;54.302;18.596;2023-11-19T13:30:17;60.67;;;26.45;;
36355;SDS011;22384;54.302;18.596;2023-11-19T13:32:43;63.30;;;25.92;;
36355;SDS011;22384;54.302;18.596;2023-11-19T13:35:11;62.50;;;28.40;;
36355;SDS011;22384;54.302;18.596;2023-11-19T13:37:43;58.53;;;26.80;;
36355;SDS011;22384;54.302;18.596;2023-11-19T13:40:10;70.60;;;27.88;;
36355;SDS011;22384;54.302;18.596;2023-11-19T13:42:39;57.97;;;27.27;;
36355;SDS011;22384;54.302;18.596;2023-11-19T13:45:07;64.68;;;28.55;;
36355;SDS011;22384;54.302;18.596;2023-11-19T13:47:36;66.43;;;30.33;;
36355;SDS011;22384;54.302;18.596;2023-11-19T13:50:06;61.17;;;27.95;;
36355;SDS011;22384;54.302;18.596;2023-11-19T13:52:32;71.00;;;28.65;;
36355;SDS011;22384;54.302;18.596;2023-11-19T13:54:58;67.15;;;28.48;;
36355;SDS011;22384;54.302;18.596;2023-11-19T13:57:24;68.53;;;28.85;;
36355;SDS011;22384;54.302;18.596;2023-11-19T14:02:50;55.42;;;24.90;;
36355;SDS011;22384;54.302;18.596;2023-11-19T14:50:57;80.47;;;31.33;;
36355;SDS011;22384;54.302;18.596;2023-11-19T14:53:24;66.38;;;27.85;;
36355;SDS011;22384;54.302;18.596;2023-11-19T14:55:50;86.25;;;31.88;;
36355;SDS011;22384;54.302;18.596;2023-11-19T14:58:16;90.53;;;31.75;;
36355;SDS011;22384;54.302;18.596;2023-11-19T15:00:42;74.88;;;28.63;;
36355;SDS011;22384;54.302;18.596;2023-11-19T15:03:10;72.63;;;29.25;;
36355;SDS011;22384;54.302;18.596;2023-11-19T15:05:37;83.22;;;30.52;;
36355;SDS011;22384;54.302;18.596;2023-11-19T15:08:03;82.63;;;35.05;;
36355;SDS011;22384;54.302;18.596;2023-11-19T15:10:29;114.30;;;41.95;;
36355;SDS011;22384;54.302;18.596;2023-11-19T15:12:55;88.28;;;35.75;;
36355;SDS011;22384;54.302;18.596;2023-11-19T15:15:21;73.75;;;32.78;;
36355;SDS011;22384;54.302;18.596;2023-11-19T15:17:47;91.93;;;34.08;;
36355;SDS011;22384;54.302;18.596;2023-11-19T15:20:13;83.53;;;33.08;;
36355;SDS011;22384;54.302;18.596;2023-11-19T15:22:43;62.13;;;26.37;;
36355;SDS011;22384;54.302;18.596;2023-11-19T15:25:09;69.05;;;27.90;;
36355;SDS011;22384;54.302;18.596;2023-11-19T15:27:35;60.88;;;25.70;;
36355;SDS011;22384;54.302;18.596;2023-11-19T15:30:05;76.38;;;30.63;;
36355;SDS011;22384;54.302;18.596;2023-11-19T15:32:31;64.93;;;26.92;;
36355;SDS011;22384;54.302;18.596;2023-11-19T17:20:27;43.60;;;19.65;;
36355;SDS011;22384;54.302;18.596;2023-11-19T17:22:54;36.92;;;18.08;;
36355;SDS011;22384;54.302;18.596;2023-11-19T17:25:21;44.53;;;18.17;;
36355;SDS011;22384;54.302;18.596;2023-11-19T17:27:48;39.75;;;18.58;;
36355;SDS011;22384;54.302;18.596;2023-11-19T17:30:14;43.28;;;19.58;;
36355;SDS011;22384;54.302;18.596;2023-11-19T17:32:41;40.97;;;19.40;;
36355;SDS011;22384;54.302;18.596;2023-11-19T17:35:07;40.22;;;17.90;;
36355;SDS011;22384;54.302;18.596;2023-11-19T17:37:33;38.95;;;18.15;;
36355;SDS011;22384;54.302;18.596;2023-11-19T17:40:00;39.17;;;18.25;;
36355;SDS011;22384;54.302;18.596;2023-11-19T17:42:26;51.80;;;21.65;;
36355;SDS011;22384;54.302;18.596;2023-11-19T17:44:52;40.58;;;18.77;;
36355;SDS011;22384;54.302;18.596;2023-11-19T17:47:18;43.17;;;17.95;;
36355;SDS011;22384;54.302;18.596;2023-11-19T17:49:45;34.72;;;16.40;;
36355;SDS011;22384;54.302;18.596;2023-11-19T17:52:12;33.38;;;16.40;;
36355;SDS011;22384;54.302;18.596;2023-11-19T17:54:38;44.03;;;18.17;;
36355;SDS011;22384;54.302;18.596;2023-11-19T17:57:04;31.05;;;16.08;;
36355;SDS011;22384;54.302;18.596;2023-11-19T17:59:31;30.15;;;15.10;;
36355;SDS011;22384;54.302;18.596;2023-11-19T18:01:57;40.83;;;19.02;;
36355;SDS011;22384;54.302;18.596;2023-11-19T18:04:26;33.55;;;16.85;;
36355;SDS011;22384;54.302;18.596;2023-11-19T18:06:52;38.30;;;18.40;;
36355;SDS011;22384;54.302;18.596;2023-11-19T18:09:18;31.70;;;15.82;;
36355;SDS011;22384;54.302;18.596;2023-11-19T18:11:44;41.63;;;19.58;;
36355;SDS011;22384;54.302;18.596;2023-11-19T18:14:11;47.38;;;20.70;;
36355;SDS011;22384;54.302;18.596;2023-11-19T18:16:37;33.03;;;17.13;;
36355;SDS011;22384;54.302;18.596;2023-11-19T18:19:03;37.63;;;18.02;;
36355;SDS011;22384;54.302;18.596;2023-11-19T18:21:32;35.58;;;17.48;;
36355;SDS011;22384;54.302;18.596;2023-11-19T18:23:58;36.63;;;17.02;;
36355;SDS011;22384;54.302;18.596;2023-11-19T18:26:24;32.55;;;16.92;;
36355;SDS011;22384;54.302;18.596;2023-11-19T18:28:51;37.33;;;18.38;;
36355;SDS011;22384;54.302;18.596;2023-11-19T18:31:18;36.53;;;16.67;;
36355;SDS011;22384;54.302;18.596;2023-11-19T18:33:44;29.52;;;16.13;;
36355;SDS011;22384;54.302;18.596;2023-11-19T18:36:11;35.17;;;18.10;;
36355;SDS011;22384;54.302;18.596;2023-11-19T18:38:37;31.95;;;17.00;;
36355;SDS011;22384;54.302;18.596;2023-11-19T18:41:04;33.05;;;17.17;;
36355;SDS011;22384;54.302;18.596;2023-11-19T18:43:31;36.97;;;18.38;;
36355;SDS011;22384;54.302;18.596;2023-11-19T18:45:57;46.60;;;20.92;;
36355;SDS011;22384;54.302;18.596;2023-11-19T18:48:23;42.08;;;20.13;;
36355;SDS011;22384;54.302;18.596;2023-11-19T18:50:50;33.45;;;17.67;;
36355;SDS011;22384;54.302;18.596;2023-11-19T18:53:17;35.72;;;18.17;;
36355;SDS011;22384;54.302;18.596;2023-11-19T18:55:43;36.13;;;16.55;;
36355;SDS011;22384;54.302;18.596;2023-11-19T18:58:09;47.53;;;19.70;;
36355;SDS011;22384;54.302;18.596;2023-11-19T19:00:35;48.50;;;21.50;;
36355;SDS011;22384;54.302;18.596;2023-11-19T19:03:01;39.50;;;19.52;;
36355;SDS011;22384;54.302;18.596;2023-11-19T19:05:29;32.45;;;17.13;;
36355;SDS011;22384;54.302;18.596;2023-11-19T19:07:55;34.97;;;17.73;;
36355;SDS011;22384;54.302;18.596;2023-11-19T19:10:23;33.22;;;17.17;;
36355;SDS011;22384;54.302;18.596;2023-11-19T19:12:49;32.17;;;16.35;;
36355;SDS011;22384;54.302;18.596;2023-11-19T19:15:17;32.60;;;16.67;;
36355;SDS011;22384;54.302;18.596;2023-11-19T19:17:43;42.05;;;19.00;;
36355;SDS011;22384;54.302;18.596;2023-11-19T19:23:12;35.03;;;17.48;;
36355;SDS011;22384;54.302;18.596;2023-11-19T19:25:39;52.72;;;22.27;;
36355;SDS011;22384;54.302;18.596;2023-11-19T19:28:05;41.58;;;18.67;;
36355;SDS011;22384;54.302;18.596;2023-11-19T19:30:32;35.03;;;17.35;;
36355;SDS011;22384;54.302;18.596;2023-11-19T19:32:58;35.92;;;18.85;;
36355;SDS011;22384;54.302;18.596;2023-11-19T19:35:24;46.53;;;21.23;;
36355;SDS011;22384;54.302;18.596;2023-11-19T19:37:58;39.58;;;19.80;;
36355;SDS011;22384;54.302;18.596;2023-11-19T19:40:27;44.45;;;21.25;;
36355;SDS011;22384;54.302;18.596;2023-11-19T19:42:53;53.95;;;23.77;;
36355;SDS011;22384;54.302;18.596;2023-11-19T19:45:39;35.72;;;18.00;;
36355;SDS011;22384;54.302;18.596;2023-11-19T19:48:05;34.83;;;19.33;;
36355;SDS011;22384;54.302;18.596;2023-11-19T19:50:31;35.13;;;18.00;;
36355;SDS011;22384;54.302;18.596;2023-11-19T19:52:57;47.10;;;22.00;;
36355;SDS011;22384;54.302;18.596;2023-11-19T19:55:23;38.22;;;18.65;;
36355;SDS011;22384;54.302;18.596;2023-11-19T19:57:50;42.45;;;19.33;;
36355;SDS011;22384;54.302;18.596;2023-11-19T20:00:16;36.15;;;19.83;;
36355;SDS011;22384;54.302;18.596;2023-11-19T20:02:42;41.25;;;19.95;;
36355;SDS011;22384;54.302;18.596;2023-11-19T20:05:09;41.63;;;19.02;;
36355;SDS011;22384;54.302;18.596;2023-11-19T20:07:41;33.20;;;16.75;;